Adventuress — WCX8691 — position and weather

sailwx.info

Track history (hours):
 
Tides and Currents Weather Stations Pressure Air Temp Water Temp Dewpoint Dewpoint Depression Visibility Wind Speed Wind Dir Waves Ship Positions

Adventuress (United States)

Ship's website: http://www.soundexp.org/

Owner: SOUND EXPERIENCE, PORT TOWNSEND, WA. More information available from US FCC via Universal Licensing System and Coast Guard Vessel Documentation Center.

Last reported at 2016-Aug-27 10:32 UTC. Time now 2016-Aug-27 15:13 UTC.
Position N 48°33' W 122°53'.

Type: Passenger vessel. MMSI: 367323180.

Date/timePositionNaut miles runAvg speedWind from/ knotsBaromVisibWave heightAir tempDewpointWater temp
2016-Aug-27 10:32N 48°33' W 122°53'0 0.0
2016-Aug-27 04:32N 48°33' W 122°53'0 0.0
2016-Aug-27 03:27N 48°33' W 122°53'0 0.0
2016-Aug-27 02:33N 48°33' W 122°53'0 0.0
2016-Aug-27 01:32N 48°33' W 122°53'0 0.0
2016-Aug-27 00:28N 48°33' W 122°53'0 0.1
2016-Aug-26 23:31N 48°33' W 122°53'0 0.0
2016-Aug-26 22:33N 48°33' W 122°53'2 1.6
2016-Aug-26 21:20N 48°35' W 122°50'4 4.8
2016-Aug-26 20:28N 48°36' W 122°44'6 6.2
2016-Aug-26 19:29N 48°34' W 122°36'3 3.4
2016-Aug-26 18:33N 48°31' W 122°36'0 0.0
2016-Aug-26 17:33N 48°31' W 122°36'0 0.0
2016-Aug-26 16:33N 48°31' W 122°36'0 0.0
2016-Aug-26 15:33N 48°31' W 122°36'0 0.0
2016-Aug-26 14:33N 48°31' W 122°36'0 0.0
2016-Aug-26 13:27N 48°31' W 122°36'0 0.0
2016-Aug-26 12:33N 48°31' W 122°36'0 0.0
2016-Aug-26 11:33N 48°31' W 122°36'0 0.0
2016-Aug-26 10:33N 48°31' W 122°36'0 0.0
2016-Aug-26 09:33N 48°31' W 122°36'0 0.0
2016-Aug-26 08:33N 48°31' W 122°36'0 0.0
2016-Aug-26 07:33N 48°31' W 122°36'0 0.0
2016-Aug-26 06:33N 48°31' W 122°36'0 0.0
2016-Aug-26 04:33N 48°31' W 122°36'0 0.0
2016-Aug-26 03:33N 48°31' W 122°36'0 0.0
2016-Aug-26 02:33N 48°31' W 122°36'0 0.0
2016-Aug-26 01:33N 48°31' W 122°36'0 0.0
2016-Aug-26 00:27N 48°31' W 122°36'0 0.0
2016-Aug-25 23:33N 48°31' W 122°36'0 0.0
2016-Aug-25 22:33N 48°31' W 122°36'0 0.0
2016-Aug-25 21:32N 48°31' W 122°36'0 0.0
2016-Aug-25 20:33N 48°31' W 122°36'0 0.0
2016-Aug-25 19:32N 48°31' W 122°36'0 0.0
2016-Aug-25 18:33N 48°31' W 122°36'0 0.0
2016-Aug-25 17:32N 48°31' W 122°36'0 0.0
2016-Aug-25 16:32N 48°31' W 122°36'0 0.0
2016-Aug-25 15:14N 48°31' W 122°36'0 0.0
2016-Aug-25 14:32N 48°31' W 122°36'0 0.0
2016-Aug-25 13:32N 48°31' W 122°36'0 0.0
2016-Aug-25 12:32N 48°31' W 122°36'0 0.0
2016-Aug-25 11:32N 48°31' W 122°36'0 0.0
2016-Aug-25 10:32N 48°31' W 122°36'0 0.0
2016-Aug-25 09:32N 48°31' W 122°36'0 0.0
2016-Aug-25 08:32N 48°31' W 122°36'0 0.0
2016-Aug-25 07:26N 48°31' W 122°36'0 0.0
2016-Aug-25 06:32N 48°31' W 122°36'0 0.0
2016-Aug-25 04:32N 48°31' W 122°36'0 0.0
2016-Aug-25 03:33N 48°31' W 122°36'0 0.0
2016-Aug-25 02:32N 48°31' W 122°36'0 0.0
2016-Aug-25 01:26N 48°31' W 122°36'0 0.0
2016-Aug-25 00:32N 48°31' W 122°36'0 0.0
2016-Aug-24 23:32N 48°31' W 122°36'0 0.0
2016-Aug-24 22:32N 48°31' W 122°36'0 0.0
2016-Aug-24 21:34N 48°31' W 122°36'0 0.1
2016-Aug-24 20:33N 48°31' W 122°36'1 1.2
2016-Aug-24 19:32N 48°32' W 122°35'2 1.6
2016-Aug-24 18:32N 48°31' W 122°37'8 6.1
2016-Aug-24 17:17N 48°32' W 122°49'2 0.2
2016-Aug-24 08:17N 48°32' W 122°51'0 0.0
2016-Aug-24 01:20N 48°32' W 122°51'0 0.0
2016-Aug-24 00:20N 48°32' W 122°51'0 0.0
2016-Aug-23 22:05N 48°32' W 122°51'0 0.0
2016-Aug-23 21:15N 48°32' W 122°51'0 0.4
2016-Aug-23 20:31N 48°32' W 122°51'1 1.4
2016-Aug-23 19:32N 48°33' W 122°51'1 1.1
2016-Aug-23 18:34N 48°34' W 122°51'3 3.3
2016-Aug-23 17:32N 48°35' W 122°55'1 0.3
2016-Aug-23 15:22N 48°35' W 122°56'0 0.0
2016-Aug-23 09:19N 48°35' W 122°56'0 0.0
2016-Aug-23 03:06N 48°35' W 122°56'0 0.1
2016-Aug-23 02:18N 48°35' W 122°56'3 2.9
2016-Aug-23 01:25N 48°35' W 123°00'2 2.0
2016-Aug-23 00:33N 48°37' W 123°00'0 0.0
2016-Aug-22 23:24N 48°37' W 123°00'1 1.4
2016-Aug-22 22:28N 48°36' W 123°02'1 1.5
2016-Aug-22 21:32N 48°36' W 123°04'1 0.5
2016-Aug-22 19:33N 48°37' W 123°04'3 2.7
2016-Aug-22 18:17N 48°40' W 123°08'3 4.0
2016-Aug-22 17:32N 48°41' W 123°12'1 0.4
2016-Aug-22 16:06N 48°41' W 123°12'0 0.0
2016-Aug-22 13:30N 48°41' W 123°12'0 0.0
2016-Aug-22 12:33N 48°41' W 123°12'0 0.0
2016-Aug-22 11:27N 48°41' W 123°12'0 0.0
2016-Aug-22 09:26N 48°41' W 123°12'0 0.0
2016-Aug-22 06:17N 48°41' W 123°12'0 0.0
2016-Aug-22 03:15N 48°41' W 123°12'2 0.4
2016-Aug-21 23:12N 48°41' W 123°10'9 5.0
2016-Aug-21 21:19N 48°34' W 123°01'1 1.7
2016-Aug-21 20:33N 48°33' W 123°01'0 0.1
2016-Aug-21 16:11N 48°32' W 123°01'0 0.0
2016-Aug-21 13:27N 48°32' W 123°01'0 0.0
2016-Aug-21 12:30N 48°32' W 123°01'0 0.0
2016-Aug-21 11:27N 48°32' W 123°01'0 0.0
2016-Aug-21 10:32N 48°32' W 123°01'0 0.0
2016-Aug-21 09:32N 48°32' W 123°01'0 0.0
2016-Aug-21 08:31N 48°32' W 123°01'0 0.0
2016-Aug-21 07:33N 48°32' W 123°01'0 0.0
2016-Aug-21 06:34N 48°32' W 123°01'0 0.0
2016-Aug-21 05:34N 48°32' W 123°01'0 0.0
2016-Aug-21 04:30N 48°32' W 123°01'0 0.0
2016-Aug-21 03:33N 48°32' W 123°01'0 0.0
2016-Aug-21 02:30N 48°32' W 123°01'0 0.0
2016-Aug-21 00:23N 48°32' W 123°01'0 0.1
2016-Aug-20 23:31N 48°32' W 123°01'5 4.9
2016-Aug-20 22:32N 48°34' W 122°54'0 0.2
2016-Aug-20 21:31N 48°34' W 122°54'1 0.8
2016-Aug-20 20:31N 48°34' W 122°53'5 5.0
2016-Aug-20 19:29N 48°32' W 122°47'6 6.1
2016-Aug-20 18:33N 48°31' W 122°38'1 1.4
2016-Aug-20 17:31N 48°31' W 122°36'0 0.0
2016-Aug-20 16:31N 48°31' W 122°36'0 0.0
2016-Aug-20 15:25N 48°31' W 122°36'0 0.0
2016-Aug-20 14:25N 48°31' W 122°36'0 0.0
2016-Aug-20 13:31N 48°31' W 122°36'0 0.0
2016-Aug-20 12:31N 48°31' W 122°36'0 0.0
2016-Aug-20 11:31N 48°31' W 122°36'0 0.0
2016-Aug-20 10:31N 48°31' W 122°36'0 0.0
2016-Aug-20 09:31N 48°31' W 122°36'0 0.0
2016-Aug-20 08:31N 48°31' W 122°36'0 0.0
2016-Aug-20 07:31N 48°31' W 122°36'0 0.0
2016-Aug-20 06:31N 48°31' W 122°36'0 0.0
2016-Aug-20 04:31N 48°31' W 122°36'0 0.0
2016-Aug-20 03:31N 48°31' W 122°36'0 0.0
2016-Aug-20 02:31N 48°31' W 122°36'0 0.0
2016-Aug-20 01:25N 48°31' W 122°36'0 0.0
2016-Aug-20 00:19N 48°31' W 122°36'0 0.0
2016-Aug-19 23:33N 48°31' W 122°36'0 0.0
2016-Aug-19 22:34N 48°31' W 122°36'1 0.6
2016-Aug-19 21:32N 48°31' W 122°35'5 2.5
2016-Aug-19 19:29N 48°31' W 122°43'6 1.6
2016-Aug-19 16:07N 48°32' W 122°51'1 0.0
2016-Aug-18 21:21N 48°32' W 122°50'7 2.6
2016-Aug-18 18:31N 48°25' W 122°55'3 3.3
2016-Aug-18 17:33N 48°28' W 122°58'1 0.5
2016-Aug-18 16:13N 48°28' W 122°59'0 0.0
2016-Aug-18 15:25N 48°28' W 122°59'0 0.0
2016-Aug-18 14:28N 48°28' W 122°59'0 0.0
2016-Aug-18 13:25N 48°28' W 122°59'0 0.0
2016-Aug-18 12:31N 48°28' W 122°59'0 0.0
2016-Aug-18 11:31N 48°28' W 122°59'0 0.0
2016-Aug-18 10:31N 48°28' W 122°59'0 0.0
2016-Aug-18 09:31N 48°28' W 122°59'0 0.0
2016-Aug-18 08:31N 48°28' W 122°59'0 0.0
2016-Aug-18 07:31N 48°28' W 122°59'0 0.0
2016-Aug-18 06:31N 48°28' W 122°59'0 0.0
2016-Aug-18 05:34N 48°28' W 122°59'0 0.0
2016-Aug-18 04:31N 48°28' W 122°59'0 0.0
2016-Aug-18 03:28N 48°28' W 122°59'0 0.0
2016-Aug-18 02:28N 48°28' W 122°59'0 0.0
2016-Aug-18 01:25N 48°28' W 122°59'0 0.0
2016-Aug-18 00:31N 48°28' W 122°59'0 0.0
2016-Aug-17 23:22N 48°28' W 122°59'0 0.0
2016-Aug-17 22:25N 48°28' W 122°59'0 0.0
2016-Aug-17 21:31N 48°28' W 122°59'0 0.0
2016-Aug-17 20:31N 48°28' W 122°59'0 0.1
2016-Aug-17 19:33N 48°28' W 122°58'1 0.6
2016-Aug-17 18:33N 48°29' W 122°59'2 2.0
2016-Aug-17 17:33N 48°30' W 122°57'3 3.1
2016-Aug-17 16:29N 48°33' W 122°60'  
Track history (hours):
 
Tides and Currents Weather Stations Pressure Air Temp Water Temp Dewpoint Dewpoint Depression Visibility Wind Speed Wind Dir Waves Ship Positions

Adventuress (United States)

Ship's website: http://www.soundexp.org/

Owner: SOUND EXPERIENCE, PORT TOWNSEND, WA. More information available from US FCC via Universal Licensing System and Coast Guard Vessel Documentation Center.

Last reported at 2016-Aug-27 10:32 UTC. Time now 2016-Aug-27 15:13 UTC.
Position N 48°33' W 122°53'.

Type: Passenger vessel. MMSI: 367323180.

Date/timePositionNaut miles runAvg speedWind from/ knotsBaromVisibWave heightAir tempDewpointWater temp
2016-Aug-27 10:32N 48°33' W 122°53'0 0.0
2016-Aug-27 04:32N 48°33' W 122°53'0 0.0
2016-Aug-27 03:27N 48°33' W 122°53'0 0.0
2016-Aug-27 02:33N 48°33' W 122°53'0 0.0
2016-Aug-27 01:32N 48°33' W 122°53'0 0.0
2016-Aug-27 00:28N 48°33' W 122°53'0 0.1
2016-Aug-26 23:31N 48°33' W 122°53'0 0.0
2016-Aug-26 22:33N 48°33' W 122°53'2 1.6
2016-Aug-26 21:20N 48°35' W 122°50'4 4.8
2016-Aug-26 20:28N 48°36' W 122°44'6 6.2
2016-Aug-26 19:29N 48°34' W 122°36'3 3.4
2016-Aug-26 18:33N 48°31' W 122°36'0 0.0
2016-Aug-26 17:33N 48°31' W 122°36'0 0.0
2016-Aug-26 16:33N 48°31' W 122°36'0 0.0
2016-Aug-26 15:33N 48°31' W 122°36'0 0.0
2016-Aug-26 14:33N 48°31' W 122°36'0 0.0
2016-Aug-26 13:27N 48°31' W 122°36'0 0.0
2016-Aug-26 12:33N 48°31' W 122°36'0 0.0
2016-Aug-26 11:33N 48°31' W 122°36'0 0.0
2016-Aug-26 10:33N 48°31' W 122°36'0 0.0
2016-Aug-26 09:33N 48°31' W 122°36'0 0.0
2016-Aug-26 08:33N 48°31' W 122°36'0 0.0
2016-Aug-26 07:33N 48°31' W 122°36'0 0.0
2016-Aug-26 06:33N 48°31' W 122°36'0 0.0
2016-Aug-26 04:33N 48°31' W 122°36'0 0.0
2016-Aug-26 03:33N 48°31' W 122°36'0 0.0
2016-Aug-26 02:33N 48°31' W 122°36'0 0.0
2016-Aug-26 01:33N 48°31' W 122°36'0 0.0
2016-Aug-26 00:27N 48°31' W 122°36'0 0.0
2016-Aug-25 23:33N 48°31' W 122°36'0 0.0
2016-Aug-25 22:33N 48°31' W 122°36'0 0.0
2016-Aug-25 21:32N 48°31' W 122°36'0 0.0
2016-Aug-25 20:33N 48°31' W 122°36'0 0.0
2016-Aug-25 19:32N 48°31' W 122°36'0 0.0
2016-Aug-25 18:33N 48°31' W 122°36'0 0.0
2016-Aug-25 17:32N 48°31' W 122°36'0 0.0
2016-Aug-25 16:32N 48°31' W 122°36'0 0.0
2016-Aug-25 15:14N 48°31' W 122°36'0 0.0
2016-Aug-25 14:32N 48°31' W 122°36'0 0.0
2016-Aug-25 13:32N 48°31' W 122°36'0 0.0
2016-Aug-25 12:32N 48°31' W 122°36'0 0.0
2016-Aug-25 11:32N 48°31' W 122°36'0 0.0
2016-Aug-25 10:32N 48°31' W 122°36'0 0.0
2016-Aug-25 09:32N 48°31' W 122°36'0 0.0
2016-Aug-25 08:32N 48°31' W 122°36'0 0.0
2016-Aug-25 07:26N 48°31' W 122°36'0 0.0
2016-Aug-25 06:32N 48°31' W 122°36'0 0.0
2016-Aug-25 04:32N 48°31' W 122°36'0 0.0
2016-Aug-25 03:33N 48°31' W 122°36'0 0.0
2016-Aug-25 02:32N 48°31' W 122°36'0 0.0
2016-Aug-25 01:26N 48°31' W 122°36'0 0.0
2016-Aug-25 00:32N 48°31' W 122°36'0 0.0
2016-Aug-24 23:32N 48°31' W 122°36'0 0.0
2016-Aug-24 22:32N 48°31' W 122°36'0 0.0
2016-Aug-24 21:34N 48°31' W 122°36'0 0.1
2016-Aug-24 20:33N 48°31' W 122°36'1 1.2
2016-Aug-24 19:32N 48°32' W 122°35'2 1.6
2016-Aug-24 18:32N 48°31' W 122°37'8 6.1
2016-Aug-24 17:17N 48°32' W 122°49'2 0.2
2016-Aug-24 08:17N 48°32' W 122°51'0 0.0
2016-Aug-24 01:20N 48°32' W 122°51'0 0.0
2016-Aug-24 00:20N 48°32' W 122°51'0 0.0
2016-Aug-23 22:05N 48°32' W 122°51'0 0.0
2016-Aug-23 21:15N 48°32' W 122°51'0 0.4
2016-Aug-23 20:31N 48°32' W 122°51'1 1.4
2016-Aug-23 19:32N 48°33' W 122°51'1 1.1
2016-Aug-23 18:34N 48°34' W 122°51'3 3.3
2016-Aug-23 17:32N 48°35' W 122°55'1 0.3
2016-Aug-23 15:22N 48°35' W 122°56'0 0.0
2016-Aug-23 09:19N 48°35' W 122°56'0 0.0
2016-Aug-23 03:06N 48°35' W 122°56'0 0.1
2016-Aug-23 02:18N 48°35' W 122°56'3 2.9
2016-Aug-23 01:25N 48°35' W 123°00'2 2.0
2016-Aug-23 00:33N 48°37' W 123°00'0 0.0
2016-Aug-22 23:24N 48°37' W 123°00'1 1.4
2016-Aug-22 22:28N 48°36' W 123°02'1 1.5
2016-Aug-22 21:32N 48°36' W 123°04'1 0.5
2016-Aug-22 19:33N 48°37' W 123°04'3 2.7
2016-Aug-22 18:17N 48°40' W 123°08'3 4.0
2016-Aug-22 17:32N 48°41' W 123°12'1 0.4
2016-Aug-22 16:06N 48°41' W 123°12'0 0.0
2016-Aug-22 13:30N 48°41' W 123°12'0 0.0
2016-Aug-22 12:33N 48°41' W 123°12'0 0.0
2016-Aug-22 11:27N 48°41' W 123°12'0 0.0
2016-Aug-22 09:26N 48°41' W 123°12'0 0.0
2016-Aug-22 06:17N 48°41' W 123°12'0 0.0
2016-Aug-22 03:15N 48°41' W 123°12'2 0.4
2016-Aug-21 23:12N 48°41' W 123°10'9 5.0
2016-Aug-21 21:19N 48°34' W 123°01'1 1.7
2016-Aug-21 20:33N 48°33' W 123°01'0 0.1
2016-Aug-21 16:11N 48°32' W 123°01'0 0.0
2016-Aug-21 13:27N 48°32' W 123°01'0 0.0
2016-Aug-21 12:30N 48°32' W 123°01'0 0.0
2016-Aug-21 11:27N 48°32' W 123°01'0 0.0
2016-Aug-21 10:32N 48°32' W 123°01'0 0.0
2016-Aug-21 09:32N 48°32' W 123°01'0 0.0
2016-Aug-21 08:31N 48°32' W 123°01'0 0.0
2016-Aug-21 07:33N 48°32' W 123°01'0 0.0
2016-Aug-21 06:34N 48°32' W 123°01'0 0.0
2016-Aug-21 05:34N 48°32' W 123°01'0 0.0
2016-Aug-21 04:30N 48°32' W 123°01'0 0.0
2016-Aug-21 03:33N 48°32' W 123°01'0 0.0
2016-Aug-21 02:30N 48°32' W 123°01'0 0.0
2016-Aug-21 00:23N 48°32' W 123°01'0 0.1
2016-Aug-20 23:31N 48°32' W 123°01'5 4.9
2016-Aug-20 22:32N 48°34' W 122°54'0 0.2
2016-Aug-20 21:31N 48°34' W 122°54'1 0.8
2016-Aug-20 20:31N 48°34' W 122°53'5 5.0
2016-Aug-20 19:29N 48°32' W 122°47'6 6.1
2016-Aug-20 18:33N 48°31' W 122°38'1 1.4
2016-Aug-20 17:31N 48°31' W 122°36'0 0.0
2016-Aug-20 16:31N 48°31' W 122°36'0 0.0
2016-Aug-20 15:25N 48°31' W 122°36'0 0.0
2016-Aug-20 14:25N 48°31' W 122°36'0 0.0
2016-Aug-20 13:31N 48°31' W 122°36'0 0.0
2016-Aug-20 12:31N 48°31' W 122°36'0 0.0
2016-Aug-20 11:31N 48°31' W 122°36'0 0.0
2016-Aug-20 10:31N 48°31' W 122°36'0 0.0
2016-Aug-20 09:31N 48°31' W 122°36'0 0.0
2016-Aug-20 08:31N 48°31' W 122°36'0 0.0
2016-Aug-20 07:31N 48°31' W 122°36'0 0.0
2016-Aug-20 06:31N 48°31' W 122°36'0 0.0
2016-Aug-20 04:31N 48°31' W 122°36'0 0.0
2016-Aug-20 03:31N 48°31' W 122°36'0 0.0
2016-Aug-20 02:31N 48°31' W 122°36'0 0.0
2016-Aug-20 01:25N 48°31' W 122°36'0 0.0
2016-Aug-20 00:19N 48°31' W 122°36'0 0.0
2016-Aug-19 23:33N 48°31' W 122°36'0 0.0
2016-Aug-19 22:34N 48°31' W 122°36'1 0.6
2016-Aug-19 21:32N 48°31' W 122°35'5 2.5
2016-Aug-19 19:29N 48°31' W 122°43'6 1.6
2016-Aug-19 16:07N 48°32' W 122°51'1 0.0
2016-Aug-18 21:21N 48°32' W 122°50'7 2.6
2016-Aug-18 18:31N 48°25' W 122°55'3 3.3
2016-Aug-18 17:33N 48°28' W 122°58'1 0.5
2016-Aug-18 16:13N 48°28' W 122°59'0 0.0
2016-Aug-18 15:25N 48°28' W 122°59'0 0.0
2016-Aug-18 14:28N 48°28' W 122°59'0 0.0
2016-Aug-18 13:25N 48°28' W 122°59'0 0.0
2016-Aug-18 12:31N 48°28' W 122°59'0 0.0
2016-Aug-18 11:31N 48°28' W 122°59'0 0.0
2016-Aug-18 10:31N 48°28' W 122°59'0 0.0
2016-Aug-18 09:31N 48°28' W 122°59'0 0.0
2016-Aug-18 08:31N 48°28' W 122°59'0 0.0
2016-Aug-18 07:31N 48°28' W 122°59'0 0.0
2016-Aug-18 06:31N 48°28' W 122°59'0 0.0
2016-Aug-18 05:34N 48°28' W 122°59'0 0.0
2016-Aug-18 04:31N 48°28' W 122°59'0 0.0
2016-Aug-18 03:28N 48°28' W 122°59'0 0.0
2016-Aug-18 02:28N 48°28' W 122°59'0 0.0
2016-Aug-18 01:25N 48°28' W 122°59'0 0.0
2016-Aug-18 00:31N 48°28' W 122°59'0 0.0
2016-Aug-17 23:22N 48°28' W 122°59'0 0.0
2016-Aug-17 22:25N 48°28' W 122°59'0 0.0
2016-Aug-17 21:31N 48°28' W 122°59'0 0.0
2016-Aug-17 20:31N 48°28' W 122°59'0 0.1
2016-Aug-17 19:33N 48°28' W 122°58'1 0.6
2016-Aug-17 18:33N 48°29' W 122°59'2 2.0
2016-Aug-17 17:33N 48°30' W 122°57'3 3.1
2016-Aug-17 16:29N 48°33' W 122°60'  

Dump ship's entire track history